createdAt,value
2023-01-27T00:00:57.483Z,43.90
2023-01-27T00:03:27.565Z,39.07
2023-01-27T00:05:54.682Z,38.10
2023-01-27T00:08:21.917Z,37.33
2023-01-27T00:11:08.843Z,33.53
2023-01-27T00:13:35.813Z,39.97
2023-01-27T00:16:02.774Z,39.53
2023-01-27T00:18:29.806Z,39.30
2023-01-27T00:21:15.579Z,39.07
2023-01-27T00:24:01.232Z,35.83
2023-01-27T00:26:28.667Z,32.73
2023-01-27T00:28:55.667Z,34.70
2023-01-27T00:31:41.450Z,37.10
2023-01-27T00:34:11.517Z,34.93
2023-01-27T00:36:40.733Z,38.07
2023-01-27T00:39:09.474Z,41.10
2023-01-27T00:41:36.613Z,36.63
2023-01-27T00:44:05.817Z,37.30
2023-01-27T00:46:33.516Z,41.70
2023-01-27T00:49:00.651Z,38.30
2023-01-27T00:51:30.846Z,38.97
2023-01-27T00:53:59.368Z,35.03
2023-01-27T00:56:28.277Z,34.40
2023-01-27T00:58:55.391Z,38.10
2023-01-27T01:01:22.418Z,38.10
2023-01-27T01:03:49.523Z,35.73
2023-01-27T01:06:18.444Z,38.03
2023-01-27T01:08:46.022Z,37.60
2023-01-27T01:11:16.875Z,37.43
2023-01-27T01:13:45.104Z,37.93
2023-01-27T01:16:15.737Z,37.03
2023-01-27T01:18:43.514Z,35.10
2023-01-27T01:21:11.266Z,38.83
2023-01-27T01:23:40.869Z,38.53
2023-01-27T01:26:10.268Z,39.50
2023-01-27T01:28:37.313Z,35.93
2023-01-27T01:31:09.401Z,35.50
2023-01-27T01:33:37.042Z,34.43
2023-01-27T01:36:06.009Z,38.80
2023-01-27T01:38:33.123Z,34.77
2023-01-27T01:41:00.233Z,39.80
2023-01-27T01:43:29.871Z,35.37
2023-01-27T01:46:03.241Z,36.43
2023-01-27T01:48:58.778Z,39.73
2023-01-27T01:51:38.006Z,34.83
2023-01-27T01:54:23.925Z,36.43
2023-01-27T01:56:58.772Z,37.17
2023-01-27T01:59:49.293Z,34.90
2023-01-27T02:02:21.662Z,37.80
2023-01-27T02:05:04.598Z,39.27
2023-01-27T02:07:49.616Z,40.17
2023-01-27T02:10:16.560Z,37.30
2023-01-27T02:12:43.596Z,39.40
2023-01-27T02:15:11.919Z,33.00
2023-01-27T02:17:39.232Z,35.93
2023-01-27T02:20:06.266Z,37.93
2023-01-27T02:22:54.805Z,38.87
2023-01-27T02:25:35.725Z,37.07
2023-01-27T02:28:04.248Z,35.37
2023-01-27T02:30:31.387Z,32.77
2023-01-27T02:32:58.683Z,36.07
2023-01-27T02:35:39.166Z,40.87
2023-01-27T02:38:07.483Z,38.60
2023-01-27T02:40:36.663Z,37.77
2023-01-27T02:43:05.417Z,37.00
2023-01-27T02:45:32.321Z,37.90
2023-01-27T02:47:59.564Z,36.40
2023-01-27T02:50:26.621Z,36.43
2023-01-27T02:52:53.768Z,41.83
2023-01-27T02:55:20.687Z,36.27
2023-01-27T02:57:47.610Z,37.20
2023-01-27T03:00:14.751Z,33.67
2023-01-27T03:02:41.839Z,32.53
2023-01-27T03:05:08.934Z,36.00
2023-01-27T03:07:35.922Z,38.60
2023-01-27T03:10:02.927Z,38.10
2023-01-27T03:12:29.882Z,36.57
2023-01-27T03:15:15.528Z,32.53
2023-01-27T03:18:01.166Z,35.53
2023-01-27T03:20:28.201Z,33.43
2023-01-27T03:22:55.240Z,34.97
2023-01-27T03:25:22.372Z,29.40
2023-01-27T03:27:49.296Z,35.23
2023-01-27T03:30:16.380Z,37.00
2023-01-27T03:32:46.897Z,33.13
2023-01-27T03:35:18.042Z,35.63
2023-01-27T03:38:03.862Z,34.87
2023-01-27T03:40:49.260Z,39.07
2023-01-27T03:43:34.963Z,37.20
2023-01-27T03:46:18.528Z,33.77
2023-01-27T03:48:50.965Z,39.37
2023-01-27T03:51:19.203Z,37.57
2023-01-27T03:53:46.885Z,34.07
2023-01-27T03:56:15.205Z,35.77
2023-01-27T03:58:44.207Z,34.57
2023-01-27T04:01:20.690Z,32.67
2023-01-27T04:04:07.535Z,37.90
2023-01-27T04:06:55.532Z,34.30
2023-01-27T04:09:25.725Z,31.50
2023-01-27T04:11:59.147Z,35.37
2023-01-27T04:14:39.450Z,35.10
2023-01-27T04:17:15.564Z,37.70
2023-01-27T04:19:42.557Z,34.30
2023-01-27T04:22:12.115Z,35.07
2023-01-27T04:24:39.737Z,37.47
2023-01-27T04:27:09.706Z,35.50
2023-01-27T04:29:41.089Z,37.33
2023-01-27T04:32:10.153Z,32.13
2023-01-27T04:34:38.091Z,33.27
2023-01-27T04:37:07.327Z,32.67
2023-01-27T04:39:37.443Z,36.43
2023-01-27T04:42:05.166Z,36.77
2023-01-27T04:44:32.111Z,32.57
2023-01-27T04:46:59.168Z,32.83
2023-01-27T04:49:29.123Z,37.37
2023-01-27T04:51:56.128Z,34.13
2023-01-27T04:54:23.374Z,35.17
2023-01-27T04:57:03.096Z,31.33
2023-01-27T04:59:31.239Z,32.73
2023-01-27T05:01:59.608Z,33.93
2023-01-27T05:04:27.288Z,33.07
2023-01-27T05:06:55.135Z,33.93
2023-01-27T05:09:22.204Z,34.80
2023-01-27T05:11:49.408Z,44.93
2023-01-27T05:14:16.366Z,38.60
2023-01-27T05:16:43.502Z,37.83
2023-01-27T05:19:10.572Z,34.87
2023-01-27T05:21:37.486Z,33.23
2023-01-27T05:24:04.699Z,34.23
2023-01-27T05:26:31.750Z,37.20
2023-01-27T05:28:59.260Z,38.50
2023-01-27T05:31:29.230Z,38.50
2023-01-27T05:33:58.668Z,41.80
2023-01-27T05:36:26.793Z,35.37
2023-01-27T05:38:55.165Z,34.93
2023-01-27T05:41:22.614Z,38.17
2023-01-27T05:43:53.725Z,37.73
2023-01-27T05:46:23.559Z,37.77
2023-01-27T05:48:53.392Z,33.17
2023-01-27T05:51:23.545Z,34.47
2023-01-27T05:53:51.103Z,36.63
2023-01-27T05:56:19.785Z,37.07
2023-01-27T05:58:46.817Z,36.63
2023-01-27T06:01:19.628Z,38.87
2023-01-27T06:03:47.568Z,34.23
2023-01-27T06:06:17.901Z,36.47
2023-01-27T06:08:46.004Z,40.33
2023-01-27T06:11:13.862Z,36.00
2023-01-27T06:13:41.269Z,40.13
2023-01-27T06:16:10.489Z,36.50
2023-01-27T06:18:38.263Z,37.73
2023-01-27T06:21:07.464Z,31.93
2023-01-27T06:23:37.671Z,36.53
2023-01-27T06:26:12.449Z,35.07
2023-01-27T06:28:40.220Z,33.07
2023-01-27T06:31:10.096Z,36.50
2023-01-27T06:33:37.654Z,34.57
2023-01-27T06:36:08.108Z,37.63
2023-01-27T06:38:35.664Z,45.90
2023-01-27T06:41:03.455Z,42.33
2023-01-27T06:43:30.694Z,41.87
2023-01-27T06:45:58.212Z,36.27
2023-01-27T06:48:26.015Z,39.30
2023-01-27T06:50:54.451Z,37.60
2023-01-27T06:53:22.048Z,36.03
2023-01-27T06:55:49.091Z,34.57
2023-01-27T06:58:16.860Z,36.53
2023-01-27T07:00:44.654Z,34.90
2023-01-27T07:05:42.123Z,35.13
2023-01-27T07:08:09.489Z,38.83
2023-01-27T07:10:36.805Z,35.57
2023-01-27T07:13:07.497Z,41.37
2023-01-27T07:15:37.009Z,34.30
2023-01-27T07:18:04.488Z,37.17
2023-01-27T07:20:32.649Z,36.63
2023-01-27T07:23:00.802Z,39.43
2023-01-27T07:25:29.040Z,36.33
2023-01-27T07:27:58.831Z,40.63
2023-01-27T07:30:26.913Z,35.60
2023-01-27T07:32:55.299Z,38.77
2023-01-27T07:35:23.199Z,38.73
2023-01-27T07:37:50.569Z,36.70
2023-01-27T07:40:18.553Z,39.07
2023-01-27T07:42:45.631Z,35.07
2023-01-27T07:45:12.599Z,36.90
2023-01-27T07:47:42.551Z,34.80
2023-01-27T07:50:10.276Z,39.10
2023-01-27T07:52:37.234Z,40.73
2023-01-27T07:55:04.453Z,39.93
2023-01-27T07:57:31.435Z,39.07
2023-01-27T07:59:58.436Z,35.00
2023-01-27T08:02:26.236Z,38.37
2023-01-27T08:04:53.911Z,34.70
2023-01-27T08:07:21.751Z,38.23
2023-01-27T08:09:49.060Z,37.23
2023-01-27T08:12:16.238Z,36.27
2023-01-27T08:14:43.186Z,32.60
2023-01-27T08:17:10.107Z,40.50
2023-01-27T08:19:39.349Z,39.20
2023-01-27T08:22:06.313Z,37.63
2023-01-27T08:24:33.302Z,42.07
2023-01-27T08:27:00.168Z,41.30
2023-01-27T08:29:28.864Z,41.27
2023-01-27T08:31:55.879Z,47.57
2023-01-27T08:34:22.783Z,34.87
2023-01-27T08:36:49.668Z,32.77
2023-01-27T08:39:16.673Z,36.70
2023-01-27T08:41:43.669Z,38.00
2023-01-27T08:44:10.711Z,37.43
2023-01-27T08:46:37.659Z,34.47
2023-01-27T08:49:04.669Z,33.93
2023-01-27T08:51:31.642Z,31.17
2023-01-27T08:53:59.020Z,46.30
2023-01-27T08:56:26.188Z,35.20
2023-01-27T08:58:53.580Z,37.37
2023-01-27T09:01:21.498Z,31.87
2023-01-27T09:03:49.151Z,33.97
2023-01-27T09:06:17.028Z,31.47
2023-01-27T09:08:45.106Z,34.37
2023-01-27T09:11:17.519Z,37.07
2023-01-27T09:13:44.752Z,33.43
2023-01-27T09:16:11.770Z,33.93
2023-01-27T09:18:38.756Z,30.90
2023-01-27T09:21:07.179Z,33.00
2023-01-27T09:23:34.921Z,31.20
2023-01-27T09:26:01.987Z,35.23
2023-01-27T09:28:29.012Z,36.40
2023-01-27T09:30:59.954Z,40.73
2023-01-27T09:33:27.800Z,37.53
2023-01-27T09:36:07.547Z,36.27
2023-01-27T09:38:47.227Z,30.20
2023-01-27T09:42:04.355Z,31.13
2023-01-27T09:44:42.947Z,34.53
2023-01-27T09:47:48.229Z,36.80
2023-01-27T09:50:39.269Z,34.03
2023-01-27T09:53:32.669Z,33.07
2023-01-27T09:56:36.239Z,34.73
2023-01-27T09:59:22.791Z,33.40
2023-01-27T10:02:07.961Z,33.77
2023-01-27T10:04:49.590Z,30.93
2023-01-27T10:07:31.989Z,35.60
2023-01-27T10:10:27.914Z,34.97
2023-01-27T10:13:31.631Z,30.13
2023-01-27T10:16:10.967Z,35.97
2023-01-27T10:19:08.234Z,34.67
2023-01-27T10:21:54.406Z,35.83
2023-01-27T10:24:32.787Z,36.63
2023-01-27T10:27:19.140Z,32.20
2023-01-27T10:29:55.507Z,33.73
2023-01-27T10:32:33.353Z,35.07
2023-01-27T10:35:19.286Z,34.40
2023-01-27T10:37:51.587Z,31.23
2023-01-27T10:40:34.308Z,35.13
2023-01-27T10:43:13.827Z,35.23
2023-01-27T10:46:07.632Z,30.73
2023-01-27T10:49:24.394Z,27.83
2023-01-27T10:52:11.920Z,29.90
2023-01-27T10:54:41.511Z,33.03
2023-01-27T10:57:28.788Z,32.20
2023-01-27T11:00:49.221Z,31.57
2023-01-27T11:03:44.611Z,30.83
2023-01-27T11:06:28.057Z,29.03
2023-01-27T11:09:07.751Z,30.87
2023-01-27T11:11:44.828Z,28.07
2023-01-27T11:14:44.108Z,30.30
2023-01-27T11:17:34.988Z,32.50
2023-01-27T11:20:13.265Z,28.10
2023-01-27T11:23:05.594Z,27.10
2023-01-27T11:25:54.037Z,33.85
2023-01-27T11:28:37.575Z,29.03
2023-01-27T11:31:19.160Z,30.93
2023-01-27T11:34:00.623Z,29.77
2023-01-27T11:36:27.687Z,29.53
2023-01-27T11:38:56.542Z,24.57
2023-01-27T11:41:24.141Z,27.40
2023-01-27T11:43:51.742Z,30.93
2023-01-27T11:46:24.059Z,28.20
2023-01-27T11:48:55.900Z,28.40
2023-01-27T11:51:32.427Z,24.30
2023-01-27T11:54:15.857Z,29.27
2023-01-27T11:56:47.061Z,29.13
2023-01-27T11:59:19.576Z,25.73
2023-01-27T12:02:07.398Z,23.00
2023-01-27T12:05:14.703Z,31.00
2023-01-27T12:08:02.610Z,30.67
2023-01-27T12:10:39.348Z,26.87
2023-01-27T12:13:16.041Z,29.47
2023-01-27T12:16:00.239Z,28.83
2023-01-27T12:18:31.321Z,33.27
2023-01-27T12:21:01.516Z,31.70
2023-01-27T12:23:30.406Z,27.97
2023-01-27T12:26:16.207Z,35.67
2023-01-27T12:28:46.222Z,30.47
2023-01-27T12:31:27.441Z,29.90
2023-01-27T12:34:04.679Z,29.43
2023-01-27T12:36:40.016Z,29.60
2023-01-27T12:39:23.882Z,32.40
2023-01-27T12:41:51.961Z,35.27
2023-01-27T12:44:22.647Z,36.07
2023-01-27T12:47:04.142Z,31.43
2023-01-27T12:49:38.933Z,30.03
2023-01-27T12:52:09.654Z,29.50
2023-01-27T12:54:37.480Z,31.23
2023-01-27T12:57:12.643Z,28.10
2023-01-27T12:59:52.681Z,34.17
2023-01-27T13:02:25.897Z,34.53
2023-01-27T13:04:55.893Z,35.60
2023-01-27T13:07:32.307Z,33.53
2023-01-27T13:10:06.644Z,34.07
2023-01-27T13:12:50.387Z,31.07
2023-01-27T13:15:20.264Z,29.10
2023-01-27T13:17:55.701Z,33.67
2023-01-27T13:20:42.949Z,34.70
2023-01-27T13:23:19.389Z,32.50
2023-01-27T13:26:11.475Z,31.30
2023-01-27T13:28:56.506Z,33.47
2023-01-27T13:31:40.170Z,35.33
2023-01-27T13:34:33.771Z,34.53
2023-01-27T13:37:24.731Z,35.30
2023-01-27T13:40:06.637Z,35.80
2023-01-27T13:42:51.645Z,34.57
2023-01-27T13:45:35.771Z,38.90
2023-01-27T13:48:10.407Z,37.90
2023-01-27T13:50:52.177Z,38.27
2023-01-27T13:53:20.323Z,37.93
2023-01-27T13:56:20.682Z,36.43
2023-01-27T13:59:20.214Z,41.43
2023-01-27T14:02:06.204Z,39.77
2023-01-27T14:04:48.005Z,40.63
2023-01-27T14:07:44.122Z,35.00
2023-01-27T14:10:24.895Z,33.33
2023-01-27T14:13:21.609Z,33.70
2023-01-27T14:16:10.024Z,35.70
2023-01-27T14:18:43.889Z,36.40
2023-01-27T14:21:41.307Z,39.40
2023-01-27T14:24:41.428Z,35.00
2023-01-27T14:27:27.004Z,33.43
2023-01-27T14:30:03.047Z,42.27
2023-01-27T14:32:49.001Z,40.23
2023-01-27T14:35:30.482Z,37.40
2023-01-27T14:38:16.098Z,45.60
2023-01-27T14:40:49.247Z,38.70
2023-01-27T14:43:38.647Z,44.27
2023-01-27T14:46:32.636Z,41.57
2023-01-27T14:49:17.295Z,42.63
2023-01-27T14:51:57.164Z,42.87
2023-01-27T14:54:45.223Z,47.27
2023-01-27T14:57:17.805Z,43.37
2023-01-27T15:00:05.613Z,45.77
2023-01-27T15:02:48.495Z,44.03
2023-01-27T15:05:37.561Z,45.43
2023-01-27T15:08:13.491Z,42.70
2023-01-27T15:11:02.207Z,45.90
2023-01-27T15:13:48.096Z,50.77
2023-01-27T15:16:20.976Z,50.80
2023-01-27T15:19:12.226Z,47.67
2023-01-27T15:21:42.240Z,39.37
2023-01-27T15:24:56.002Z,43.93
2023-01-27T15:27:24.201Z,42.43
2023-01-27T15:29:52.480Z,41.17
2023-01-27T15:32:26.371Z,42.83
2023-01-27T15:35:15.921Z,41.73
2023-01-27T15:38:07.840Z,42.50
2023-01-27T15:41:11.567Z,45.03
2023-01-27T15:43:41.779Z,47.03
2023-01-27T15:46:34.282Z,44.47
2023-01-27T15:49:04.925Z,37.07
2023-01-27T15:51:36.731Z,41.83
2023-01-27T15:54:04.573Z,38.17
2023-01-27T15:56:53.562Z,34.27
2023-01-27T15:59:30.851Z,34.77
2023-01-27T16:02:27.300Z,33.87
2023-01-27T16:05:20.360Z,29.93
2023-01-27T16:07:54.130Z,36.23
2023-01-27T16:10:24.607Z,32.33
2023-01-27T16:13:28.693Z,27.10
2023-01-27T16:16:20.156Z,33.70
2023-01-27T16:19:01.570Z,29.10
2023-01-27T16:21:50.537Z,25.90
2023-01-27T16:24:23.490Z,24.83
2023-01-27T16:26:59.939Z,29.10
2023-01-27T16:29:39.741Z,28.20
2023-01-27T16:32:18.562Z,32.47
2023-01-27T16:35:04.575Z,25.63
2023-01-27T16:37:35.253Z,28.37
2023-01-27T16:40:07.621Z,28.80
2023-01-27T16:42:45.413Z,25.20
2023-01-27T16:45:40.247Z,31.10
2023-01-27T16:48:27.362Z,28.27
2023-01-27T16:51:04.924Z,27.40
2023-01-27T16:53:32.498Z,37.20
2023-01-27T16:56:03.744Z,37.60
2023-01-27T16:58:45.617Z,34.97
2023-01-27T17:01:27.666Z,28.87
2023-01-27T17:04:07.801Z,31.43
2023-01-27T17:06:45.009Z,30.93
2023-01-27T17:09:24.655Z,32.37
2023-01-27T17:11:54.290Z,30.80
2023-01-27T17:14:33.003Z,29.40
2023-01-27T17:17:02.675Z,31.50
2023-01-27T17:19:37.277Z,30.17
2023-01-27T17:22:11.429Z,35.70
2023-01-27T17:24:52.933Z,30.20
2023-01-27T17:27:22.898Z,33.97
2023-01-27T17:29:55.385Z,34.00
2023-01-27T17:32:26.550Z,34.67
2023-01-27T17:34:59.491Z,36.37
2023-01-27T17:37:29.483Z,29.60
2023-01-27T17:39:59.184Z,34.53
2023-01-27T17:42:31.327Z,29.23
2023-01-27T17:45:27.324Z,31.50
2023-01-27T17:48:01.669Z,27.53
2023-01-27T17:50:37.869Z,31.53
2023-01-27T17:53:12.870Z,37.13
2023-01-27T17:55:40.212Z,34.10
2023-01-27T17:58:15.020Z,31.43
2023-01-27T18:00:45.194Z,31.30
2023-01-27T18:03:28.424Z,29.33
2023-01-27T18:05:55.897Z,33.23
2023-01-27T18:08:23.891Z,34.77
2023-01-27T18:10:51.693Z,34.60
2023-01-27T18:13:18.609Z,33.77
2023-01-27T18:15:59.334Z,33.83
2023-01-27T18:18:36.847Z,33.63
2023-01-27T18:21:06.688Z,31.43
2023-01-27T18:23:38.170Z,33.37
2023-01-27T18:26:26.355Z,35.23
2023-01-27T18:29:06.767Z,33.63
2023-01-27T18:31:58.362Z,34.13
2023-01-27T18:34:33.415Z,37.13
2023-01-27T18:37:27.534Z,33.43
2023-01-27T18:39:59.663Z,32.60
2023-01-27T18:42:29.279Z,38.10
2023-01-27T18:44:57.248Z,38.10
2023-01-27T18:47:34.490Z,36.10
2023-01-27T18:50:10.717Z,37.80
2023-01-27T18:52:37.882Z,37.70
2023-01-27T18:55:17.164Z,40.13
2023-01-27T18:57:46.367Z,35.27
2023-01-27T19:00:25.496Z,35.67
2023-01-27T19:02:56.501Z,32.70
2023-01-27T19:05:32.299Z,34.57
2023-01-27T19:08:00.144Z,34.57
2023-01-27T19:10:30.296Z,31.53
2023-01-27T19:12:59.308Z,35.83
2023-01-27T19:15:28.551Z,37.50
2023-01-27T19:17:57.490Z,33.77
2023-01-27T19:20:27.015Z,31.60
2023-01-27T19:22:55.408Z,31.13
2023-01-27T19:25:23.968Z,31.30
2023-01-27T19:27:56.578Z,34.23
2023-01-27T19:30:24.086Z,35.80
2023-01-27T19:32:53.085Z,31.17
2023-01-27T19:35:20.336Z,36.17
2023-01-27T19:37:48.564Z,31.83
2023-01-27T19:40:19.486Z,32.93
2023-01-27T19:42:47.152Z,34.10
2023-01-27T19:45:16.531Z,32.23
2023-01-27T19:47:49.337Z,32.07
2023-01-27T19:50:25.168Z,31.10
2023-01-27T19:52:52.479Z,33.83
2023-01-27T19:55:23.101Z,32.00
2023-01-27T19:57:51.503Z,36.87
2023-01-27T20:00:41.405Z,33.73
2023-01-27T20:03:09.523Z,33.33
2023-01-27T20:05:36.487Z,34.70
2023-01-27T20:08:03.567Z,35.90
2023-01-27T20:10:32.837Z,37.03
2023-01-27T20:13:03.244Z,39.40
2023-01-27T20:15:34.132Z,35.37
2023-01-27T20:18:01.199Z,30.70
2023-01-27T20:20:28.629Z,34.00
2023-01-27T20:22:56.122Z,33.17
2023-01-27T20:25:28.450Z,37.73
2023-01-27T20:28:00.970Z,29.17
2023-01-27T20:30:33.507Z,35.33
2023-01-27T20:33:04.810Z,33.87
2023-01-27T20:35:32.071Z,31.50
2023-01-27T20:37:59.204Z,30.73
2023-01-27T20:40:29.489Z,31.50
2023-01-27T20:42:57.047Z,32.07
2023-01-27T20:45:24.047Z,30.77
2023-01-27T20:47:52.920Z,31.10
2023-01-27T20:50:21.185Z,36.27
2023-01-27T20:52:48.815Z,31.17
2023-01-27T20:55:18.097Z,30.07
2023-01-27T20:57:46.095Z,28.83
2023-01-27T21:00:21.807Z,34.10
2023-01-27T21:02:49.272Z,31.67
2023-01-27T21:05:16.711Z,33.53
2023-01-27T21:07:44.218Z,37.83
2023-01-27T21:10:12.137Z,29.77
2023-01-27T21:12:39.255Z,37.77
2023-01-27T21:15:10.007Z,37.63
2023-01-27T21:17:37.658Z,36.47
2023-01-27T21:20:05.541Z,32.00
2023-01-27T21:22:34.593Z,33.87
2023-01-27T21:25:02.015Z,36.93
2023-01-27T21:27:29.254Z,32.50
2023-01-27T21:29:56.291Z,33.37
2023-01-27T21:32:23.278Z,33.40
2023-01-27T21:34:50.245Z,32.67
2023-01-27T21:37:17.566Z,35.63
2023-01-27T21:39:44.525Z,32.30
2023-01-27T21:42:14.843Z,34.20
2023-01-27T21:45:00.367Z,34.87
2023-01-27T21:47:27.408Z,34.00
2023-01-27T21:50:00.493Z,36.40
2023-01-27T21:52:35.269Z,37.53
2023-01-27T21:55:04.922Z,35.97
2023-01-27T21:57:32.341Z,37.37
2023-01-27T22:00:02.946Z,33.60
2023-01-27T22:02:29.971Z,36.27
2023-01-27T22:04:57.876Z,34.87
2023-01-27T22:07:26.729Z,32.33
2023-01-27T22:09:53.743Z,34.53
2023-01-27T22:12:22.392Z,35.60
2023-01-27T22:14:49.921Z,34.20
2023-01-27T22:17:18.982Z,34.60
2023-01-27T22:19:46.967Z,34.37
2023-01-27T22:22:14.172Z,38.10
2023-01-27T22:24:41.531Z,34.33
2023-01-27T22:27:08.491Z,34.53
2023-01-27T22:29:35.542Z,35.47
2023-01-27T22:32:02.723Z,30.80
2023-01-27T22:34:29.644Z,26.73
2023-01-27T22:36:56.697Z,28.63
2023-01-27T22:39:23.723Z,31.87
2023-01-27T22:41:50.868Z,33.30
2023-01-27T22:44:18.139Z,33.93
2023-01-27T22:46:45.048Z,30.73
2023-01-27T22:49:12.255Z,31.57
2023-01-27T22:51:39.207Z,28.60
2023-01-27T22:54:06.602Z,33.60
2023-01-27T22:56:33.526Z,28.93
2023-01-27T22:59:01.185Z,31.40
2023-01-27T23:01:29.119Z,32.17
2023-01-27T23:03:56.239Z,36.63
2023-01-27T23:06:23.204Z,33.57
2023-01-27T23:08:50.251Z,33.83
2023-01-27T23:11:17.126Z,33.10
2023-01-27T23:13:44.130Z,30.57
2023-01-27T23:16:11.167Z,32.70
2023-01-27T23:18:38.158Z,27.93
2023-01-27T23:21:07.286Z,32.00
2023-01-27T23:23:37.486Z,31.27
2023-01-27T23:26:09.329Z,33.17
2023-01-27T23:28:39.889Z,34.67
2023-01-27T23:31:11.445Z,32.70
2023-01-27T23:33:40.773Z,31.10
2023-01-27T23:36:09.204Z,30.73
2023-01-27T23:38:36.869Z,29.47
2023-01-27T23:41:18.467Z,31.30
2023-01-27T23:43:50.808Z,35.40
2023-01-27T23:46:18.108Z,30.70
2023-01-27T23:48:52.454Z,29.67
2023-01-27T23:51:20.790Z,30.40
2023-01-27T23:53:48.220Z,30.60
2023-01-27T23:56:17.532Z,34.80
2023-01-27T23:58:45.527Z,37.00
